createdAt,value
2023-01-10T00:00:57.022Z,15.84
2023-01-10T00:03:24.038Z,15.77
2023-01-10T00:05:51.085Z,15.74
2023-01-10T00:08:18.380Z,15.68
2023-01-10T00:10:45.296Z,15.66
2023-01-10T00:13:26.357Z,15.60
2023-01-10T00:15:55.842Z,15.57
2023-01-10T00:18:23.095Z,15.52
2023-01-10T00:20:50.171Z,15.47
2023-01-10T00:23:18.730Z,15.47
2023-01-10T00:25:45.627Z,15.44
2023-01-10T00:28:21.498Z,15.39
2023-01-10T00:31:01.396Z,15.35
2023-01-10T00:33:32.204Z,15.34
2023-01-10T00:36:03.467Z,15.30
2023-01-10T00:38:39.561Z,15.28
2023-01-10T00:41:26.368Z,15.25
2023-01-10T00:43:58.922Z,15.19
2023-01-10T00:46:27.105Z,15.16
2023-01-10T00:48:53.995Z,15.14
2023-01-10T00:51:20.878Z,15.10
2023-01-10T00:53:47.738Z,15.10
2023-01-10T00:56:14.601Z,15.08
2023-01-10T00:58:41.438Z,15.03
2023-01-10T01:01:08.467Z,15.02
2023-01-10T01:03:35.560Z,15.01
2023-01-10T01:06:06.535Z,14.95
2023-01-10T01:08:33.476Z,14.95
2023-01-10T01:11:00.520Z,14.95
2023-01-10T01:13:27.486Z,14.93
2023-01-10T01:15:58.323Z,14.90
2023-01-10T01:18:25.180Z,14.91
2023-01-10T01:20:57.145Z,14.88
2023-01-10T01:23:25.104Z,14.86
2023-01-10T01:25:53.710Z,14.87
2023-01-10T01:28:22.076Z,14.83
2023-01-10T01:30:49.556Z,14.83
2023-01-10T01:33:17.581Z,14.81
2023-01-10T01:35:46.252Z,14.79
2023-01-10T01:38:13.915Z,14.78
2023-01-10T01:40:41.979Z,14.77
2023-01-10T01:43:27.526Z,14.75
2023-01-10T01:45:55.331Z,14.75
2023-01-10T01:48:38.782Z,14.71
2023-01-10T01:51:09.916Z,14.72
2023-01-10T01:53:36.634Z,14.72
2023-01-10T01:56:10.425Z,14.71
2023-01-10T01:58:47.195Z,14.69
2023-01-10T02:01:16.733Z,14.70
2023-01-10T02:03:47.761Z,14.69
2023-01-10T02:06:16.290Z,14.67
2023-01-10T02:08:50.890Z,14.67
2023-01-10T02:11:17.732Z,14.67
2023-01-10T02:13:46.679Z,14.64
2023-01-10T02:16:14.105Z,14.67
2023-01-10T02:18:42.811Z,14.65
2023-01-10T02:21:15.894Z,14.62
2023-01-10T02:24:01.376Z,14.65
2023-01-10T02:27:15.518Z,14.64
2023-01-10T02:30:00.544Z,14.65
2023-01-10T02:33:04.583Z,14.62
2023-01-10T02:35:45.385Z,14.62
2023-01-10T02:38:36.558Z,14.63
2023-01-10T02:41:15.803Z,14.62
2023-01-10T02:44:07.720Z,14.64
2023-01-10T02:46:37.407Z,14.64
2023-01-10T02:49:04.463Z,14.66
2023-01-10T02:51:33.717Z,14.65
2023-01-10T02:54:09.874Z,14.65
2023-01-10T02:56:45.777Z,14.63
2023-01-10T02:59:31.327Z,14.65
2023-01-10T03:02:22.147Z,14.67
2023-01-10T03:05:30.514Z,14.66
2023-01-10T03:08:12.460Z,14.66
2023-01-10T03:11:01.829Z,14.67
2023-01-10T03:13:46.925Z,14.68
2023-01-10T03:16:19.854Z,14.67
2023-01-10T03:18:57.796Z,14.66
2023-01-10T03:21:27.019Z,14.69
2023-01-10T03:24:01.264Z,14.67
2023-01-10T03:26:37.173Z,14.70
2023-01-10T03:29:11.246Z,14.72
2023-01-10T03:31:50.069Z,14.71
2023-01-10T03:34:17.417Z,14.71
2023-01-10T03:36:55.228Z,14.72
2023-01-10T03:39:44.783Z,14.74
2023-01-10T03:42:29.366Z,14.74
2023-01-10T03:45:02.231Z,14.75
2023-01-10T03:47:46.777Z,14.75
2023-01-10T03:50:26.156Z,14.77
2023-01-10T03:52:53.530Z,14.77
2023-01-10T03:55:27.644Z,14.76
2023-01-10T03:57:54.569Z,14.77
2023-01-10T04:00:21.694Z,14.76
2023-01-10T04:02:48.513Z,14.74
2023-01-10T04:05:15.423Z,14.76
2023-01-10T04:07:42.775Z,14.78
2023-01-10T04:10:10.109Z,14.78
2023-01-10T04:12:36.990Z,14.76
2023-01-10T04:15:04.273Z,14.79
2023-01-10T04:17:31.142Z,14.78
2023-01-10T04:19:58.028Z,14.78
2023-01-10T04:22:24.906Z,14.80
2023-01-10T04:24:52.357Z,14.79
2023-01-10T04:27:19.788Z,14.80
2023-01-10T04:29:47.371Z,14.80
2023-01-10T04:32:14.618Z,14.80
2023-01-10T04:34:41.497Z,14.80
2023-01-10T04:37:08.371Z,14.79
2023-01-10T04:39:35.256Z,14.80
2023-01-10T04:42:02.188Z,14.79
2023-01-10T04:44:28.992Z,14.81
2023-01-10T04:46:55.818Z,14.81
2023-01-10T04:49:22.689Z,14.79
2023-01-10T04:51:49.525Z,14.82
2023-01-10T04:54:20.976Z,14.83
2023-01-10T04:56:47.867Z,14.80
2023-01-10T04:59:14.947Z,14.83
2023-01-10T05:01:41.957Z,14.83
2023-01-10T05:04:09.534Z,14.84
2023-01-10T05:06:37.363Z,14.83
2023-01-10T05:09:04.267Z,14.83
2023-01-10T05:11:31.165Z,14.81
2023-01-10T05:13:58.004Z,14.84
2023-01-10T05:16:25.712Z,14.85
2023-01-10T05:18:52.664Z,14.86
2023-01-10T05:21:19.467Z,14.86
2023-01-10T05:23:46.484Z,14.86
2023-01-10T05:26:19.317Z,14.87
2023-01-10T05:28:46.400Z,14.88
2023-01-10T05:31:17.286Z,14.88
2023-01-10T05:33:48.414Z,14.86
2023-01-10T05:36:15.557Z,14.88
2023-01-10T05:38:42.580Z,14.89
2023-01-10T05:41:09.565Z,14.88
2023-01-10T05:43:36.463Z,14.89
2023-01-10T05:46:03.520Z,14.86
2023-01-10T05:48:30.466Z,14.90
2023-01-10T05:50:58.019Z,14.89
2023-01-10T05:53:24.955Z,14.91
2023-01-10T05:56:02.103Z,14.98
2023-01-10T05:58:29.948Z,15.04
2023-01-10T06:00:58.194Z,15.12
2023-01-10T06:03:26.898Z,15.15
2023-01-10T06:05:57.453Z,15.20
2023-01-10T06:08:25.092Z,15.25
2023-01-10T06:10:52.423Z,15.23
2023-01-10T06:13:19.310Z,15.18
2023-01-10T06:15:46.395Z,15.17
2023-01-10T06:18:13.611Z,15.14
2023-01-10T06:20:44.580Z,15.10
2023-01-10T06:23:11.574Z,15.09
2023-01-10T06:25:40.937Z,15.08
2023-01-10T06:28:09.410Z,15.17
2023-01-10T06:30:36.220Z,15.22
2023-01-10T06:33:08.918Z,15.25
2023-01-10T06:35:36.468Z,15.30
2023-01-10T06:38:03.406Z,15.34
2023-01-10T06:40:30.426Z,15.41
2023-01-10T06:42:57.240Z,15.45
2023-01-10T06:45:24.172Z,15.45
2023-01-10T06:47:51.044Z,15.43
2023-01-10T06:50:18.502Z,15.43
2023-01-10T06:52:45.438Z,15.34
2023-01-10T06:55:12.465Z,15.29
2023-01-10T06:57:39.285Z,15.33
2023-01-10T07:00:09.828Z,15.38
2023-01-10T07:02:37.435Z,15.36
2023-01-10T07:05:04.562Z,15.33
2023-01-10T07:07:31.526Z,15.33
2023-01-10T07:10:00.047Z,15.31
2023-01-10T07:12:26.887Z,15.28
2023-01-10T07:14:53.768Z,15.29
2023-01-10T07:17:20.716Z,15.25
2023-01-10T07:19:47.571Z,15.27
2023-01-10T07:22:14.473Z,15.25
2023-01-10T07:24:41.377Z,15.28
2023-01-10T07:27:08.264Z,15.38
2023-01-10T07:29:35.238Z,15.11
2023-01-10T07:32:02.251Z,14.91
2023-01-10T07:34:29.376Z,14.99
2023-01-10T07:36:56.230Z,15.07
2023-01-10T07:39:23.081Z,15.07
2023-01-10T07:41:50.895Z,15.10
2023-01-10T07:44:17.826Z,15.10
2023-01-10T07:46:44.821Z,15.09
2023-01-10T07:49:11.919Z,15.09
2023-01-10T07:51:38.805Z,15.10
2023-01-10T07:54:05.737Z,15.06
2023-01-10T07:56:33.368Z,15.08
2023-01-10T07:59:01.570Z,15.05
2023-01-10T08:01:29.925Z,15.05
2023-01-10T08:03:58.583Z,15.04
2023-01-10T08:06:25.631Z,15.06
2023-01-10T08:08:52.485Z,15.01
2023-01-10T08:11:19.662Z,15.04
2023-01-10T08:13:46.984Z,15.03
2023-01-10T08:16:15.625Z,15.00
2023-01-10T08:18:43.573Z,15.00
2023-01-10T08:21:10.593Z,15.00
2023-01-10T08:23:37.556Z,15.00
2023-01-10T08:26:06.029Z,14.97
2023-01-10T08:28:33.351Z,14.98
2023-01-10T08:31:06.413Z,14.95
2023-01-10T08:33:33.624Z,14.96
2023-01-10T08:36:00.523Z,14.97
2023-01-10T08:38:27.384Z,14.95
2023-01-10T08:40:57.736Z,14.94
2023-01-10T08:43:24.903Z,14.90
2023-01-10T08:45:52.309Z,14.90
2023-01-10T08:48:19.257Z,14.91
2023-01-10T08:50:46.284Z,14.91
2023-01-10T08:53:14.079Z,14.89
2023-01-10T08:55:41.077Z,14.88
2023-01-10T08:58:08.167Z,14.89
2023-01-10T09:00:35.156Z,14.89
2023-01-10T09:03:02.404Z,14.89
2023-01-10T09:05:29.474Z,14.89
2023-01-10T09:08:01.235Z,14.87
2023-01-10T09:10:30.264Z,14.81
2023-01-10T09:13:01.978Z,14.82
2023-01-10T09:15:33.054Z,14.81
2023-01-10T09:18:07.814Z,14.81
2023-01-10T09:20:37.212Z,14.85
2023-01-10T09:23:20.724Z,14.94
2023-01-10T09:25:49.492Z,14.99
2023-01-10T09:28:17.802Z,15.01
2023-01-10T09:30:45.406Z,15.07
2023-01-10T09:33:13.427Z,15.11
2023-01-10T09:35:41.983Z,15.12
2023-01-10T09:38:13.070Z,15.13
2023-01-10T09:41:35.834Z,15.13
2023-01-10T09:44:19.244Z,15.14
2023-01-10T09:46:55.519Z,15.14
2023-01-10T09:49:22.703Z,15.15
2023-01-10T09:51:52.487Z,15.22
2023-01-10T09:54:38.636Z,15.26
2023-01-10T09:57:08.184Z,15.24
2023-01-10T09:59:41.768Z,15.29
2023-01-10T10:02:15.006Z,15.31
2023-01-10T10:04:42.325Z,15.33
2023-01-10T10:07:14.931Z,15.32
2023-01-10T10:09:43.543Z,15.35
2023-01-10T10:12:36.633Z,15.36
2023-01-10T10:15:16.138Z,15.36
2023-01-10T10:18:12.675Z,15.37
2023-01-10T10:20:48.748Z,15.38
2023-01-10T10:23:22.456Z,15.40
2023-01-10T10:25:49.378Z,15.39
2023-01-10T10:28:53.912Z,15.37
2023-01-10T10:31:45.304Z,15.43
2023-01-10T10:34:47.768Z,15.42
2023-01-10T10:37:33.127Z,15.43
2023-01-10T10:40:15.041Z,15.45
2023-01-10T10:42:51.650Z,15.44
2023-01-10T10:45:25.534Z,15.44
2023-01-10T10:48:15.825Z,15.43
2023-01-10T10:51:01.078Z,15.43
2023-01-10T10:53:30.233Z,15.49
2023-01-10T10:55:57.770Z,15.49
2023-01-10T10:58:26.200Z,15.52
2023-01-10T11:00:55.076Z,15.56
2023-01-10T11:03:31.126Z,15.58
2023-01-10T11:06:00.126Z,15.59
2023-01-10T11:08:30.120Z,15.53
2023-01-10T11:10:59.622Z,15.52
2023-01-10T11:13:26.508Z,15.36
2023-01-10T11:15:56.447Z,15.17
2023-01-10T11:18:27.760Z,15.14
2023-01-10T11:21:00.637Z,15.19
2023-01-10T11:23:40.123Z,15.25
2023-01-10T11:26:40.927Z,15.24
2023-01-10T11:29:27.371Z,15.27
2023-01-10T11:31:56.554Z,15.26
2023-01-10T11:34:25.824Z,15.27
2023-01-10T11:37:25.736Z,15.28
2023-01-10T11:40:17.609Z,15.31
2023-01-10T11:42:45.160Z,15.31
2023-01-10T11:45:18.209Z,15.33
2023-01-10T11:48:18.532Z,15.37
2023-01-10T11:50:50.961Z,15.35
2023-01-10T11:53:39.813Z,15.30
2023-01-10T11:56:08.538Z,15.23
2023-01-10T11:58:38.534Z,15.19
2023-01-10T12:01:06.165Z,15.21
2023-01-10T12:03:38.682Z,15.28
2023-01-10T12:06:18.246Z,15.30
2023-01-10T12:08:45.509Z,15.29
2023-01-10T12:11:18.425Z,15.32
2023-01-10T12:13:58.068Z,15.32
2023-01-10T12:16:33.705Z,15.37
2023-01-10T12:19:04.336Z,15.46
2023-01-10T12:21:43.344Z,15.51
2023-01-10T12:24:24.783Z,15.57
2023-01-10T12:26:54.058Z,15.64
2023-01-10T12:29:28.265Z,15.71
2023-01-10T12:31:58.471Z,15.77
2023-01-10T12:34:40.526Z,15.85
2023-01-10T12:37:40.833Z,15.92
2023-01-10T12:40:56.425Z,15.98
2023-01-10T12:44:03.416Z,16.03
2023-01-10T12:47:05.771Z,16.08
2023-01-10T12:49:35.204Z,16.13
2023-01-10T12:52:10.517Z,16.14
2023-01-10T12:54:37.646Z,16.22
2023-01-10T12:57:17.000Z,16.26
2023-01-10T12:59:45.562Z,16.31
2023-01-10T13:02:22.714Z,16.33
2023-01-10T13:04:55.654Z,16.39
2023-01-10T13:07:26.849Z,16.41
2023-01-10T13:09:53.887Z,16.46
2023-01-10T13:12:40.848Z,16.50
2023-01-10T13:15:22.376Z,16.61
2023-01-10T13:17:56.059Z,16.62
2023-01-10T13:20:23.232Z,16.65
2023-01-10T13:22:56.047Z,16.66
2023-01-10T13:25:27.321Z,16.64
2023-01-10T13:28:23.179Z,16.55
2023-01-10T13:30:55.552Z,16.56
2023-01-10T13:33:26.271Z,16.55
2023-01-10T13:35:57.185Z,16.55
2023-01-10T13:38:36.402Z,16.53
2023-01-10T13:41:29.978Z,16.50
2023-01-10T13:44:05.920Z,16.49
2023-01-10T13:46:38.762Z,16.48
2023-01-10T13:49:11.918Z,16.45
2023-01-10T13:52:17.260Z,16.47
2023-01-10T13:54:58.189Z,16.44
2023-01-10T13:57:57.706Z,16.41
2023-01-10T14:00:53.179Z,16.38
2023-01-10T14:03:40.650Z,16.39
2023-01-10T14:06:11.784Z,16.37
2023-01-10T14:08:39.302Z,16.37
2023-01-10T14:11:10.319Z,16.36
2023-01-10T14:13:39.290Z,16.35
2023-01-10T14:16:09.418Z,16.31
2023-01-10T14:18:39.987Z,16.14
2023-01-10T14:21:10.164Z,16.03
2023-01-10T14:23:50.214Z,16.13
2023-01-10T14:26:37.463Z,16.10
2023-01-10T14:29:14.134Z,15.96
2023-01-10T14:31:47.552Z,15.89
2023-01-10T14:34:23.729Z,15.80
2023-01-10T14:37:03.781Z,15.86
2023-01-10T14:39:31.393Z,15.95
2023-01-10T14:42:11.939Z,15.90
2023-01-10T14:44:46.065Z,15.91
2023-01-10T14:47:35.140Z,16.00
2023-01-10T14:50:03.619Z,16.04
2023-01-10T14:52:31.311Z,15.92
2023-01-10T14:54:58.404Z,15.92
2023-01-10T14:57:25.445Z,15.98
2023-01-10T15:00:06.590Z,15.97
2023-01-10T15:02:34.370Z,16.03
2023-01-10T15:05:09.944Z,16.05
2023-01-10T15:07:38.215Z,16.08
2023-01-10T15:10:42.089Z,16.09
2023-01-10T15:13:09.380Z,16.12
2023-01-10T15:15:39.117Z,16.15
2023-01-10T15:18:44.823Z,16.15
2023-01-10T15:21:14.009Z,16.17
2023-01-10T15:23:44.767Z,16.18
2023-01-10T15:26:22.134Z,16.19
2023-01-10T15:29:06.366Z,16.22
2023-01-10T15:31:37.918Z,16.25
2023-01-10T15:34:32.218Z,16.17
2023-01-10T15:37:03.344Z,16.17
2023-01-10T15:39:40.447Z,16.22
2023-01-10T15:42:12.043Z,16.25
2023-01-10T15:44:40.660Z,16.26
2023-01-10T15:47:39.441Z,16.24
2023-01-10T15:50:22.266Z,16.26
2023-01-10T15:52:55.470Z,16.26
2023-01-10T15:55:50.466Z,16.27
2023-01-10T15:58:28.808Z,16.25
2023-01-10T16:00:58.441Z,16.23
2023-01-10T16:03:53.898Z,16.17
2023-01-10T16:06:23.813Z,16.16
2023-01-10T16:08:54.379Z,16.15
2023-01-10T16:11:59.986Z,16.20
2023-01-10T16:14:26.907Z,16.21
2023-01-10T16:16:53.948Z,16.25
2023-01-10T16:19:20.890Z,16.26
2023-01-10T16:21:52.112Z,16.35
2023-01-10T16:24:24.683Z,16.41
2023-01-10T16:26:54.004Z,16.47
2023-01-10T16:29:23.164Z,16.55
2023-01-10T16:31:53.487Z,16.57
2023-01-10T16:34:31.619Z,16.62
2023-01-10T16:36:58.574Z,16.61
2023-01-10T16:39:25.743Z,16.67
2023-01-10T16:42:12.359Z,16.68
2023-01-10T16:44:40.096Z,16.73
2023-01-10T16:47:07.376Z,16.76
2023-01-10T16:49:35.837Z,16.74
2023-01-10T16:52:03.975Z,16.71
2023-01-10T16:54:31.911Z,16.80
2023-01-10T16:57:00.185Z,16.83
2023-01-10T16:59:28.903Z,16.79
2023-01-10T17:01:58.265Z,16.75
2023-01-10T17:04:30.349Z,16.76
2023-01-10T17:06:59.795Z,16.76
2023-01-10T17:09:29.745Z,16.74
2023-01-10T17:12:04.386Z,16.78
2023-01-10T17:14:34.316Z,16.79
2023-01-10T17:17:03.259Z,16.79
2023-01-10T17:19:30.761Z,16.84
2023-01-10T17:21:58.754Z,16.86
2023-01-10T17:24:26.463Z,16.85
2023-01-10T17:26:53.497Z,16.85
2023-01-10T17:29:23.158Z,16.91
2023-01-10T17:31:50.600Z,16.96
2023-01-10T17:34:17.639Z,16.98
2023-01-10T17:36:44.604Z,17.02
2023-01-10T17:39:11.816Z,17.08
2023-01-10T17:41:39.116Z,17.13
2023-01-10T17:44:06.201Z,17.17
2023-01-10T17:46:33.666Z,17.22
2023-01-10T17:49:02.755Z,17.26
2023-01-10T17:51:29.955Z,17.28
2023-01-10T17:53:56.959Z,17.33
2023-01-10T17:56:24.845Z,17.40
2023-01-10T17:58:53.775Z,17.46
2023-01-10T18:01:25.321Z,17.49
2023-01-10T18:03:53.938Z,17.52
2023-01-10T18:06:24.866Z,17.53
2023-01-10T18:08:53.161Z,17.57
2023-01-10T18:11:20.923Z,17.62
2023-01-10T18:13:47.966Z,17.63
2023-01-10T18:16:15.472Z,17.66
2023-01-10T18:18:42.732Z,17.66
2023-01-10T18:21:14.644Z,17.69
2023-01-10T18:23:42.778Z,17.73
2023-01-10T18:26:13.358Z,17.74
2023-01-10T18:28:43.281Z,17.75
2023-01-10T18:31:16.898Z,17.78
2023-01-10T18:33:46.285Z,17.78
2023-01-10T18:36:21.758Z,17.79
2023-01-10T18:38:49.679Z,17.82
2023-01-10T18:41:18.997Z,17.82
2023-01-10T18:43:47.363Z,17.74
2023-01-10T18:46:20.620Z,17.70
2023-01-10T18:48:50.668Z,17.68
2023-01-10T18:51:19.492Z,17.70
2023-01-10T18:53:47.794Z,17.68
2023-01-10T18:56:16.480Z,17.69
2023-01-10T18:58:43.585Z,17.73
2023-01-10T19:01:15.535Z,17.77
2023-01-10T19:03:43.122Z,17.78
2023-01-10T19:06:15.017Z,17.80
2023-01-10T19:08:42.935Z,17.83
2023-01-10T19:11:15.248Z,17.82
2023-01-10T19:13:46.957Z,17.85
2023-01-10T19:16:20.200Z,17.85
2023-01-10T19:18:56.158Z,17.86
2023-01-10T19:21:25.894Z,17.85
2023-01-10T19:23:58.253Z,17.85
2023-01-10T19:26:27.707Z,17.78
2023-01-10T19:28:56.380Z,17.78
2023-01-10T19:31:26.590Z,17.77
2023-01-10T19:33:54.523Z,17.70
2023-01-10T19:36:23.716Z,17.70
2023-01-10T19:38:58.551Z,17.60
2023-01-10T19:41:26.856Z,17.60
2023-01-10T19:44:02.028Z,17.59
2023-01-10T19:46:34.535Z,17.55
2023-01-10T19:49:08.333Z,17.55
2023-01-10T19:51:39.998Z,17.51
2023-01-10T19:54:08.961Z,17.52
2023-01-10T19:56:36.980Z,17.46
2023-01-10T19:59:04.346Z,17.51
2023-01-10T20:01:32.686Z,17.50
2023-01-10T20:04:02.656Z,17.46
2023-01-10T20:06:32.548Z,17.48
2023-01-10T20:08:59.744Z,17.45
2023-01-10T20:11:37.995Z,17.40
2023-01-10T20:14:08.153Z,17.54
2023-01-10T20:16:35.522Z,17.63
2023-01-10T20:19:02.735Z,17.67
2023-01-10T20:21:30.239Z,17.75
2023-01-10T20:23:58.883Z,17.81
2023-01-10T20:26:27.602Z,17.87
2023-01-10T20:28:58.846Z,17.92
2023-01-10T20:31:29.878Z,17.95
2023-01-10T20:33:57.360Z,18.02
2023-01-10T20:36:30.506Z,18.04
2023-01-10T20:38:59.218Z,18.06
2023-01-10T20:41:31.835Z,18.13
2023-01-10T20:44:01.737Z,18.16
2023-01-10T20:46:33.660Z,18.19
2023-01-10T20:49:04.251Z,18.15
2023-01-10T20:51:38.410Z,18.05
2023-01-10T20:54:10.034Z,18.05
2023-01-10T20:56:39.866Z,18.09
2023-01-10T20:59:08.475Z,18.16
2023-01-10T21:01:37.315Z,18.16
2023-01-10T21:04:07.891Z,18.20
2023-01-10T21:06:39.398Z,18.18
2023-01-10T21:09:07.761Z,18.14
2023-01-10T21:11:55.717Z,18.13
2023-01-10T21:14:25.043Z,18.01
2023-01-10T21:16:52.339Z,18.03
2023-01-10T21:19:20.834Z,18.06
2023-01-10T21:21:48.899Z,18.05
2023-01-10T21:24:17.396Z,18.01
2023-01-10T21:26:45.205Z,17.97
2023-01-10T21:29:15.109Z,17.94
2023-01-10T21:31:42.471Z,17.92
2023-01-10T21:34:09.800Z,17.85
2023-01-10T21:36:39.299Z,17.71
2023-01-10T21:39:06.482Z,17.56
2023-01-10T21:41:52.296Z,17.48
2023-01-10T21:44:20.731Z,17.39
2023-01-10T21:46:50.352Z,17.34
2023-01-10T21:49:17.870Z,17.28
2023-01-10T21:51:45.813Z,17.21
2023-01-10T21:54:14.434Z,17.15
2023-01-10T21:56:41.895Z,17.08
2023-01-10T21:59:09.005Z,17.03
2023-01-10T22:01:36.600Z,16.97
2023-01-10T22:04:04.483Z,16.91
2023-01-10T22:06:32.432Z,16.86
2023-01-10T22:08:59.610Z,16.77
2023-01-10T22:11:26.809Z,16.76
2023-01-10T22:13:55.380Z,16.71
2023-01-10T22:16:22.556Z,16.68
2023-01-10T22:18:50.723Z,16.65
2023-01-10T22:21:20.630Z,16.63
2023-01-10T22:23:47.916Z,16.59
2023-01-10T22:26:17.092Z,16.57
2023-01-10T22:28:44.866Z,16.50
2023-01-10T22:31:12.242Z,16.49
2023-01-10T22:33:39.719Z,16.45
2023-01-10T22:36:08.881Z,16.43
2023-01-10T22:38:36.026Z,16.36
2023-01-10T22:41:15.046Z,16.34
2023-01-10T22:43:43.703Z,16.30
2023-01-10T22:46:11.477Z,16.27
2023-01-10T22:48:38.974Z,16.25
2023-01-10T22:51:06.241Z,16.21
2023-01-10T22:53:33.890Z,16.17
2023-01-10T22:56:02.726Z,16.15
2023-01-10T22:58:30.284Z,16.11
2023-01-10T23:03:38.291Z,16.02
2023-01-10T23:06:05.256Z,15.99
2023-01-10T23:08:32.620Z,15.95
2023-01-10T23:11:00.109Z,15.94
2023-01-10T23:13:28.332Z,15.89
2023-01-10T23:16:16.765Z,15.86
2023-01-10T23:18:44.099Z,15.82
2023-01-10T23:21:11.236Z,15.80
2023-01-10T23:23:38.271Z,15.76
2023-01-10T23:26:08.811Z,15.76
2023-01-10T23:28:38.516Z,15.72
2023-01-10T23:31:07.375Z,15.70
2023-01-10T23:33:34.581Z,15.69
2023-01-10T23:36:02.241Z,15.66
2023-01-10T23:38:29.936Z,15.63
2023-01-10T23:40:57.300Z,15.59
2023-01-10T23:43:24.776Z,15.57
2023-01-10T23:45:51.905Z,15.54
2023-01-10T23:48:19.311Z,15.51
2023-01-10T23:50:50.093Z,15.49
2023-01-10T23:53:17.919Z,15.47
2023-01-10T23:55:44.929Z,15.46
2023-01-10T23:58:11.837Z,15.43
